sensor_id;sensor_type;location;lat;lon;timestamp;P1;durP1;ratioP1;P2;durP2;ratioP2
10144;SDS011;5113;41.822;23.564;2023-03-14T07:28:41;17.70;;;11.33;;
10144;SDS011;5113;41.822;23.564;2023-03-14T07:31:48;21.10;;;13.03;;
10144;SDS011;5113;41.822;23.564;2023-03-14T07:34:54;10.87;;;7.20;;
10144;SDS011;5113;41.822;23.564;2023-03-14T07:38:00;10.43;;;7.77;;
10144;SDS011;5113;41.822;23.564;2023-03-14T07:41:06;8.40;;;5.00;;
10144;SDS011;5113;41.822;23.564;2023-03-14T07:44:15;6.00;;;5.20;;
10144;SDS011;5113;41.822;23.564;2023-03-14T07:47:21;9.83;;;6.23;;
10144;SDS011;5113;41.822;23.564;2023-03-14T07:50:27;12.53;;;6.23;;
10144;SDS011;5113;41.822;23.564;2023-03-14T07:53:34;7.20;;;4.90;;
10144;SDS011;5113;41.822;23.564;2023-03-14T07:56:40;11.53;;;6.10;;
10144;SDS011;5113;41.822;23.564;2023-03-14T07:59:48;8.03;;;5.43;;
10144;SDS011;5113;41.822;23.564;2023-03-14T08:02:54;6.07;;;5.47;;
10144;SDS011;5113;41.822;23.564;2023-03-14T08:06:00;7.00;;;6.03;;
10144;SDS011;5113;41.822;23.564;2023-03-14T08:09:07;7.33;;;5.97;;
10144;SDS011;5113;41.822;23.564;2023-03-14T08:12:13;11.87;;;6.53;;
10144;SDS011;5113;41.822;23.564;2023-03-14T08:15:22;7.97;;;6.17;;
10144;SDS011;5113;41.822;23.564;2023-03-14T08:18:28;8.90;;;6.40;;
10144;SDS011;5113;41.822;23.564;2023-03-14T08:21:35;9.07;;;6.20;;
10144;SDS011;5113;41.822;23.564;2023-03-14T08:24:41;6.70;;;5.30;;
10144;SDS011;5113;41.822;23.564;2023-03-14T08:27:47;6.20;;;5.23;;
10144;SDS011;5113;41.822;23.564;2023-03-14T08:30:56;5.70;;;5.20;;
10144;SDS011;5113;41.822;23.564;2023-03-14T08:34:03;5.30;;;4.10;;
10144;SDS011;5113;41.822;23.564;2023-03-14T08:37:11;4.97;;;4.00;;
10144;SDS011;5113;41.822;23.564;2023-03-14T08:40:29;12.00;;;5.50;;
10144;SDS011;5113;41.822;23.564;2023-03-14T08:43:35;6.37;;;5.20;;
10144;SDS011;5113;41.822;23.564;2023-03-14T08:46:43;4.53;;;4.13;;
10144;SDS011;5113;41.822;23.564;2023-03-14T08:49:49;5.43;;;4.90;;
10144;SDS011;5113;41.822;23.564;2023-03-14T08:52:56;7.53;;;4.83;;
10144;SDS011;5113;41.822;23.564;2023-03-14T08:56:04;7.57;;;4.63;;
10144;SDS011;5113;41.822;23.564;2023-03-14T08:59:11;5.87;;;4.67;;
10144;SDS011;5113;41.822;23.564;2023-03-14T09:02:19;5.87;;;4.47;;
10144;SDS011;5113;41.822;23.564;2023-03-14T09:05:25;5.03;;;4.17;;
10144;SDS011;5113;41.822;23.564;2023-03-14T09:08:31;9.37;;;5.10;;
10144;SDS011;5113;41.822;23.564;2023-03-14T09:11:41;7.73;;;6.33;;
10144;SDS011;5113;41.822;23.564;2023-03-14T09:14:47;5.13;;;4.10;;
10144;SDS011;5113;41.822;23.564;2023-03-14T09:17:55;4.60;;;4.23;;
10144;SDS011;5113;41.822;23.564;2023-03-14T09:21:02;4.73;;;4.23;;
10144;SDS011;5113;41.822;23.564;2023-03-14T09:24:08;5.27;;;3.87;;
10144;SDS011;5113;41.822;23.564;2023-03-14T09:27:15;5.23;;;4.50;;
10144;SDS011;5113;41.822;23.564;2023-03-14T09:30:22;10.40;;;4.90;;
10144;SDS011;5113;41.822;23.564;2023-03-14T09:33:30;6.67;;;4.70;;
10144;SDS011;5113;41.822;23.564;2023-03-14T09:36:36;4.50;;;3.97;;
10144;SDS011;5113;41.822;23.564;2023-03-14T09:39:44;6.83;;;5.27;;
10144;SDS011;5113;41.822;23.564;2023-03-14T09:42:50;8.43;;;6.23;;
10144;SDS011;5113;41.822;23.564;2023-03-14T09:45:58;8.53;;;5.37;;
10144;SDS011;5113;41.822;23.564;2023-03-14T09:49:11;5.03;;;4.57;;
10144;SDS011;5113;41.822;23.564;2023-03-14T09:52:22;9.40;;;5.47;;
10144;SDS011;5113;41.822;23.564;2023-03-14T09:55:32;10.77;;;6.30;;
10144;SDS011;5113;41.822;23.564;2023-03-14T09:58:40;15.90;;;7.23;;
10144;SDS011;5113;41.822;23.564;2023-03-14T10:01:50;5.30;;;4.50;;
10144;SDS011;5113;41.822;23.564;2023-03-14T10:04:57;7.20;;;5.43;;
10144;SDS011;5113;41.822;23.564;2023-03-14T10:08:09;5.80;;;4.57;;
10144;SDS011;5113;41.822;23.564;2023-03-14T10:11:16;4.77;;;4.03;;
10144;SDS011;5113;41.822;23.564;2023-03-14T10:14:30;7.37;;;4.73;;
10144;SDS011;5113;41.822;23.564;2023-03-14T10:17:39;5.93;;;5.33;;
10144;SDS011;5113;41.822;23.564;2023-03-14T10:20:48;5.67;;;4.27;;
10144;SDS011;5113;41.822;23.564;2023-03-14T10:24:07;12.80;;;7.10;;
10144;SDS011;5113;41.822;23.564;2023-03-14T10:27:27;8.20;;;5.67;;
10144;SDS011;5113;41.822;23.564;2023-03-14T10:30:38;10.53;;;6.70;;
10144;SDS011;5113;41.822;23.564;2023-03-14T10:33:57;6.03;;;4.87;;
10144;SDS011;5113;41.822;23.564;2023-03-14T10:37:07;6.23;;;4.67;;
10144;SDS011;5113;41.822;23.564;2023-03-14T10:40:26;5.20;;;4.77;;
10144;SDS011;5113;41.822;23.564;2023-03-14T10:43:35;13.97;;;5.97;;
10144;SDS011;5113;41.822;23.564;2023-03-14T10:46:43;6.43;;;4.07;;
10144;SDS011;5113;41.822;23.564;2023-03-14T10:49:49;4.27;;;3.87;;
10144;SDS011;5113;41.822;23.564;2023-03-14T10:53:00;5.30;;;4.10;;
10144;SDS011;5113;41.822;23.564;2023-03-14T10:56:13;6.10;;;3.50;;
10144;SDS011;5113;41.822;23.564;2023-03-14T10:59:20;4.03;;;3.60;;
10144;SDS011;5113;41.822;23.564;2023-03-14T11:02:30;4.10;;;3.57;;
10144;SDS011;5113;41.822;23.564;2023-03-14T11:05:43;6.10;;;4.53;;
10144;SDS011;5113;41.822;23.564;2023-03-14T11:08:57;3.43;;;3.13;;
10144;SDS011;5113;41.822;23.564;2023-03-14T11:12:15;3.10;;;2.80;;
10144;SDS011;5113;41.822;23.564;2023-03-14T11:15:36;3.47;;;3.23;;
10144;SDS011;5113;41.822;23.564;2023-03-14T11:22:35;4.40;;;4.10;;
10144;SDS011;5113;41.822;23.564;2023-03-14T11:25:49;6.80;;;3.80;;
10144;SDS011;5113;41.822;23.564;2023-03-14T11:29:08;5.27;;;4.40;;
10144;SDS011;5113;41.822;23.564;2023-03-14T11:32:33;5.93;;;4.70;;
10144;SDS011;5113;41.822;23.564;2023-03-14T11:35:48;12.30;;;7.67;;
10144;SDS011;5113;41.822;23.564;2023-03-14T11:39:00;58.07;;;31.77;;
10144;SDS011;5113;41.822;23.564;2023-03-14T11:42:08;24.83;;;15.23;;
10144;SDS011;5113;41.822;23.564;2023-03-14T11:45:20;5.60;;;4.33;;
10144;SDS011;5113;41.822;23.564;2023-03-14T11:48:41;8.73;;;2.33;;
10144;SDS011;5113;41.822;23.564;2023-03-14T11:51:53;2.30;;;2.10;;
10144;SDS011;5113;41.822;23.564;2023-03-14T11:55:05;3.60;;;3.13;;
10144;SDS011;5113;41.822;23.564;2023-03-14T11:58:19;2.37;;;2.20;;
10144;SDS011;5113;41.822;23.564;2023-03-14T12:01:31;10.37;;;5.53;;
10144;SDS011;5113;41.822;23.564;2023-03-14T12:04:51;5.93;;;4.67;;
10144;SDS011;5113;41.822;23.564;2023-03-14T12:08:17;4.07;;;3.57;;
10144;SDS011;5113;41.822;23.564;2023-03-14T12:11:33;2.80;;;2.60;;
10144;SDS011;5113;41.822;23.564;2023-03-14T12:14:46;6.33;;;5.20;;
10144;SDS011;5113;41.822;23.564;2023-03-14T12:18:00;4.10;;;3.70;;
10144;SDS011;5113;41.822;23.564;2023-03-14T12:21:07;2.67;;;2.47;;
10144;SDS011;5113;41.822;23.564;2023-03-14T12:24:17;2.73;;;2.50;;
10144;SDS011;5113;41.822;23.564;2023-03-14T12:34:49;4.23;;;3.83;;
10144;SDS011;5113;41.822;23.564;2023-03-14T12:37:55;5.57;;;3.93;;
10144;SDS011;5113;41.822;23.564;2023-03-14T12:41:05;3.10;;;2.90;;
10144;SDS011;5113;41.822;23.564;2023-03-14T12:47:51;3.10;;;2.77;;
10144;SDS011;5113;41.822;23.564;2023-03-14T12:51:00;2.50;;;2.30;;
10144;SDS011;5113;41.822;23.564;2023-03-14T12:57:44;2.57;;;2.37;;
10144;SDS011;5113;41.822;23.564;2023-03-14T13:00:55;3.23;;;2.73;;
10144;SDS011;5113;41.822;23.564;2023-03-14T13:04:06;4.50;;;3.83;;
10144;SDS011;5113;41.822;23.564;2023-03-14T13:07:33;4.27;;;3.87;;
10144;SDS011;5113;41.822;23.564;2023-03-14T13:10:45;4.43;;;2.57;;
10144;SDS011;5113;41.822;23.564;2023-03-14T13:13:56;6.70;;;4.60;;
10144;SDS011;5113;41.822;23.564;2023-03-14T13:17:04;3.40;;;3.07;;
10144;SDS011;5113;41.822;23.564;2023-03-14T13:20:37;4.97;;;3.40;;
10144;SDS011;5113;41.822;23.564;2023-03-14T13:23:55;3.47;;;2.80;;
10144;SDS011;5113;41.822;23.564;2023-03-14T13:27:03;5.07;;;4.40;;
10144;SDS011;5113;41.822;23.564;2023-03-14T13:30:15;5.03;;;3.93;;
10144;SDS011;5113;41.822;23.564;2023-03-14T13:33:29;2.80;;;2.60;;
10144;SDS011;5113;41.822;23.564;2023-03-14T13:36:40;3.47;;;2.57;;
10144;SDS011;5113;41.822;23.564;2023-03-14T13:39:49;3.90;;;2.43;;
10144;SDS011;5113;41.822;23.564;2023-03-14T13:43:01;2.97;;;2.77;;
10144;SDS011;5113;41.822;23.564;2023-03-14T13:46:12;3.93;;;2.70;;
10144;SDS011;5113;41.822;23.564;2023-03-14T13:49:21;2.80;;;2.60;;
10144;SDS011;5113;41.822;23.564;2023-03-14T13:52:31;2.90;;;2.70;;
10144;SDS011;5113;41.822;23.564;2023-03-14T13:55:42;5.00;;;2.80;;
10144;SDS011;5113;41.822;23.564;2023-03-14T13:58:49;3.13;;;2.83;;
10144;SDS011;5113;41.822;23.564;2023-03-14T14:01:56;2.90;;;2.57;;
10144;SDS011;5113;41.822;23.564;2023-03-14T14:05:05;3.40;;;2.80;;
10144;SDS011;5113;41.822;23.564;2023-03-14T14:08:13;4.33;;;3.47;;
10144;SDS011;5113;41.822;23.564;2023-03-14T14:11:22;4.97;;;3.50;;
10144;SDS011;5113;41.822;23.564;2023-03-14T14:14:55;5.30;;;2.90;;
10144;SDS011;5113;41.822;23.564;2023-03-14T14:18:08;9.33;;;3.77;;
10144;SDS011;5113;41.822;23.564;2023-03-14T14:21:17;3.17;;;2.83;;
10144;SDS011;5113;41.822;23.564;2023-03-14T14:24:28;5.27;;;2.53;;
10144;SDS011;5113;41.822;23.564;2023-03-14T14:27:37;2.93;;;2.73;;
10144;SDS011;5113;41.822;23.564;2023-03-14T14:30:46;5.23;;;4.73;;
10144;SDS011;5113;41.822;23.564;2023-03-14T14:34:17;4.40;;;4.10;;
10144;SDS011;5113;41.822;23.564;2023-03-14T14:37:25;4.20;;;2.47;;
10144;SDS011;5113;41.822;23.564;2023-03-14T14:40:34;3.77;;;3.43;;
10144;SDS011;5113;41.822;23.564;2023-03-14T14:43:49;4.07;;;3.60;;
10144;SDS011;5113;41.822;23.564;2023-03-14T14:46:58;5.10;;;3.60;;
10144;SDS011;5113;41.822;23.564;2023-03-14T14:50:04;4.43;;;3.33;;
10144;SDS011;5113;41.822;23.564;2023-03-14T14:53:28;3.60;;;3.30;;
10144;SDS011;5113;41.822;23.564;2023-03-14T14:56:37;5.70;;;3.63;;
10144;SDS011;5113;41.822;23.564;2023-03-14T14:59:44;5.20;;;4.03;;
10144;SDS011;5113;41.822;23.564;2023-03-14T15:02:51;10.60;;;4.53;;
10144;SDS011;5113;41.822;23.564;2023-03-14T15:06:00;9.63;;;5.03;;
10144;SDS011;5113;41.822;23.564;2023-03-14T15:09:08;9.77;;;5.20;;
10144;SDS011;5113;41.822;23.564;2023-03-14T15:12:16;7.80;;;6.10;;
10144;SDS011;5113;41.822;23.564;2023-03-14T15:15:24;8.30;;;6.83;;
10144;SDS011;5113;41.822;23.564;2023-03-14T15:18:31;9.17;;;5.03;;
10144;SDS011;5113;41.822;23.564;2023-03-14T15:21:37;6.40;;;5.17;;
10144;SDS011;5113;41.822;23.564;2023-03-14T15:24:44;8.27;;;6.50;;
10144;SDS011;5113;41.822;23.564;2023-03-14T15:27:52;13.23;;;10.37;;
10144;SDS011;5113;41.822;23.564;2023-03-14T15:30:58;5.67;;;5.00;;
10144;SDS011;5113;41.822;23.564;2023-03-14T15:34:05;12.40;;;9.40;;
10144;SDS011;5113;41.822;23.564;2023-03-14T15:37:12;28.43;;;13.77;;
10144;SDS011;5113;41.822;23.564;2023-03-14T15:40:20;14.73;;;7.13;;
10144;SDS011;5113;41.822;23.564;2023-03-14T15:43:33;15.60;;;7.77;;
10144;SDS011;5113;41.822;23.564;2023-03-14T15:46:39;9.53;;;5.90;;
10144;SDS011;5113;41.822;23.564;2023-03-14T15:49:46;11.30;;;6.80;;
10144;SDS011;5113;41.822;23.564;2023-03-14T15:52:52;9.33;;;6.23;;
10144;SDS011;5113;41.822;23.564;2023-03-14T15:55:58;6.87;;;6.20;;
10144;SDS011;5113;41.822;23.564;2023-03-14T15:59:06;16.17;;;10.37;;
10144;SDS011;5113;41.822;23.564;2023-03-14T16:02:13;18.90;;;12.87;;
10144;SDS011;5113;41.822;23.564;2023-03-14T16:05:19;20.40;;;11.27;;
10144;SDS011;5113;41.822;23.564;2023-03-14T16:08:26;24.60;;;16.03;;
10144;SDS011;5113;41.822;23.564;2023-03-14T16:11:33;7.33;;;6.60;;
10144;SDS011;5113;41.822;23.564;2023-03-14T16:14:41;11.83;;;6.40;;
10144;SDS011;5113;41.822;23.564;2023-03-14T16:17:47;6.47;;;5.03;;
10144;SDS011;5113;41.822;23.564;2023-03-14T16:20:58;9.33;;;7.13;;
10144;SDS011;5113;41.822;23.564;2023-03-14T16:24:06;7.93;;;6.00;;
10144;SDS011;5113;41.822;23.564;2023-03-14T16:27:12;10.53;;;6.87;;
10144;SDS011;5113;41.822;23.564;2023-03-14T16:30:20;7.73;;;6.67;;
10144;SDS011;5113;41.822;23.564;2023-03-14T16:33:27;10.60;;;6.93;;
10144;SDS011;5113;41.822;23.564;2023-03-14T16:36:33;14.50;;;8.20;;
10144;SDS011;5113;41.822;23.564;2023-03-14T16:39:40;16.37;;;9.37;;
10144;SDS011;5113;41.822;23.564;2023-03-14T16:43:06;12.43;;;9.10;;
10144;SDS011;5113;41.822;23.564;2023-03-14T16:46:21;11.13;;;6.37;;
10144;SDS011;5113;41.822;23.564;2023-03-14T16:49:28;7.37;;;5.60;;
10144;SDS011;5113;41.822;23.564;2023-03-14T16:52:35;10.90;;;6.60;;
10144;SDS011;5113;41.822;23.564;2023-03-14T16:55:41;7.43;;;5.03;;
10144;SDS011;5113;41.822;23.564;2023-03-14T16:58:48;12.00;;;8.87;;
10144;SDS011;5113;41.822;23.564;2023-03-14T17:01:56;8.63;;;6.87;;
10144;SDS011;5113;41.822;23.564;2023-03-14T17:05:03;9.17;;;5.97;;
10144;SDS011;5113;41.822;23.564;2023-03-14T17:08:09;9.57;;;6.83;;
10144;SDS011;5113;41.822;23.564;2023-03-14T17:11:16;7.80;;;6.50;;
10144;SDS011;5113;41.822;23.564;2023-03-14T17:14:23;16.13;;;8.23;;
10144;SDS011;5113;41.822;23.564;2023-03-14T17:17:31;7.83;;;5.00;;
10144;SDS011;5113;41.822;23.564;2023-03-14T17:20:38;5.70;;;3.67;;
10144;SDS011;5113;41.822;23.564;2023-03-14T17:23:45;3.93;;;3.70;;
10144;SDS011;5113;41.822;23.564;2023-03-14T17:26:52;7.07;;;3.40;;
10144;SDS011;5113;41.822;23.564;2023-03-14T17:29:58;10.70;;;6.27;;
10144;SDS011;5113;41.822;23.564;2023-03-14T17:33:06;4.80;;;4.23;;
10144;SDS011;5113;41.822;23.564;2023-03-14T17:36:13;8.07;;;5.13;;
10144;SDS011;5113;41.822;23.564;2023-03-14T17:39:21;8.40;;;7.53;;
10144;SDS011;5113;41.822;23.564;2023-03-14T17:42:28;4.67;;;4.27;;
10144;SDS011;5113;41.822;23.564;2023-03-14T17:45:34;8.67;;;5.37;;
10144;SDS011;5113;41.822;23.564;2023-03-14T17:48:43;8.73;;;6.50;;
10144;SDS011;5113;41.822;23.564;2023-03-14T17:51:50;8.87;;;5.50;;
10144;SDS011;5113;41.822;23.564;2023-03-14T17:54:57;7.37;;;4.80;;
10144;SDS011;5113;41.822;23.564;2023-03-14T17:58:03;11.77;;;9.20;;
10144;SDS011;5113;41.822;23.564;2023-03-14T18:01:11;11.00;;;7.23;;
10144;SDS011;5113;41.822;23.564;2023-03-14T18:04:20;14.03;;;8.17;;
10144;SDS011;5113;41.822;23.564;2023-03-14T18:07:27;7.77;;;6.40;;
10144;SDS011;5113;41.822;23.564;2023-03-14T18:10:34;6.63;;;4.53;;
10144;SDS011;5113;41.822;23.564;2023-03-14T18:13:40;14.17;;;9.27;;
10144;SDS011;5113;41.822;23.564;2023-03-14T18:16:47;10.50;;;6.93;;
10144;SDS011;5113;41.822;23.564;2023-03-14T18:19:56;14.40;;;7.80;;
10144;SDS011;5113;41.822;23.564;2023-03-14T18:23:02;8.30;;;6.43;;
10144;SDS011;5113;41.822;23.564;2023-03-14T18:26:10;6.27;;;4.70;;
10144;SDS011;5113;41.822;23.564;2023-03-14T18:29:16;10.93;;;6.93;;
10144;SDS011;5113;41.822;23.564;2023-03-14T18:32:23;9.77;;;7.20;;
10144;SDS011;5113;41.822;23.564;2023-03-14T18:35:30;5.70;;;4.50;;
10144;SDS011;5113;41.822;23.564;2023-03-14T18:38:37;6.20;;;5.33;;
10144;SDS011;5113;41.822;23.564;2023-03-14T18:41:47;10.57;;;6.77;;
10144;SDS011;5113;41.822;23.564;2023-03-14T18:44:53;10.40;;;6.63;;
10144;SDS011;5113;41.822;23.564;2023-03-14T18:47:59;4.70;;;4.30;;
10144;SDS011;5113;41.822;23.564;2023-03-14T18:51:07;7.13;;;4.30;;
10144;SDS011;5113;41.822;23.564;2023-03-14T18:54:14;11.10;;;6.97;;
10144;SDS011;5113;41.822;23.564;2023-03-14T18:57:21;6.10;;;4.30;;
10144;SDS011;5113;41.822;23.564;2023-03-14T19:00:27;5.47;;;3.70;;
10144;SDS011;5113;41.822;23.564;2023-03-14T19:03:33;5.67;;;4.63;;
10144;SDS011;5113;41.822;23.564;2023-03-14T19:06:42;6.33;;;5.70;;
10144;SDS011;5113;41.822;23.564;2023-03-14T19:09:49;11.37;;;8.10;;
10144;SDS011;5113;41.822;23.564;2023-03-14T19:12:55;12.60;;;7.93;;
10144;SDS011;5113;41.822;23.564;2023-03-14T19:16:02;14.60;;;7.83;;
10144;SDS011;5113;41.822;23.564;2023-03-14T19:19:09;5.17;;;4.53;;
10144;SDS011;5113;41.822;23.564;2023-03-14T19:22:17;11.17;;;5.37;;
10144;SDS011;5113;41.822;23.564;2023-03-14T19:25:23;4.97;;;4.47;;
10144;SDS011;5113;41.822;23.564;2023-03-14T19:28:29;5.70;;;5.10;;
10144;SDS011;5113;41.822;23.564;2023-03-14T19:31:36;8.20;;;5.57;;
10144;SDS011;5113;41.822;23.564;2023-03-14T19:34:43;11.00;;;6.80;;
10144;SDS011;5113;41.822;23.564;2023-03-14T19:37:51;13.03;;;7.97;;
10144;SDS011;5113;41.822;23.564;2023-03-14T19:40:57;9.57;;;6.00;;
10144;SDS011;5113;41.822;23.564;2023-03-14T19:44:04;10.23;;;7.63;;
10144;SDS011;5113;41.822;23.564;2023-03-14T19:47:10;18.53;;;11.70;;
10144;SDS011;5113;41.822;23.564;2023-03-14T19:50:16;38.87;;;22.33;;
10144;SDS011;5113;41.822;23.564;2023-03-14T19:53:24;59.27;;;30.90;;
10144;SDS011;5113;41.822;23.564;2023-03-14T19:56:31;34.10;;;16.27;;
10144;SDS011;5113;41.822;23.564;2023-03-14T19:59:38;30.23;;;16.43;;
10144;SDS011;5113;41.822;23.564;2023-03-14T20:02:44;8.70;;;6.37;;
10144;SDS011;5113;41.822;23.564;2023-03-14T20:05:51;30.60;;;16.70;;
10144;SDS011;5113;41.822;23.564;2023-03-14T20:08:59;10.60;;;8.40;;
10144;SDS011;5113;41.822;23.564;2023-03-14T20:12:09;32.07;;;16.63;;
10144;SDS011;5113;41.822;23.564;2023-03-14T20:15:15;25.50;;;15.30;;
10144;SDS011;5113;41.822;23.564;2023-03-14T20:18:23;20.17;;;11.97;;
10144;SDS011;5113;41.822;23.564;2023-03-14T20:21:30;10.80;;;7.67;;
10144;SDS011;5113;41.822;23.564;2023-03-14T20:24:37;11.93;;;7.37;;
10144;SDS011;5113;41.822;23.564;2023-03-14T20:27:44;12.53;;;7.03;;
10144;SDS011;5113;41.822;23.564;2023-03-14T20:30:51;12.90;;;8.87;;
10144;SDS011;5113;41.822;23.564;2023-03-14T20:33:58;26.13;;;14.50;;
10144;SDS011;5113;41.822;23.564;2023-03-14T20:37:04;29.70;;;14.50;;
10144;SDS011;5113;41.822;23.564;2023-03-14T20:40:13;17.83;;;9.53;;
10144;SDS011;5113;41.822;23.564;2023-03-14T20:43:19;15.67;;;9.40;;
10144;SDS011;5113;41.822;23.564;2023-03-14T20:46:26;6.30;;;4.30;;
10144;SDS011;5113;41.822;23.564;2023-03-14T20:49:32;7.13;;;4.17;;
10144;SDS011;5113;41.822;23.564;2023-03-14T20:52:38;10.03;;;5.47;;
10144;SDS011;5113;41.822;23.564;2023-03-14T20:55:46;5.77;;;4.00;;
10144;SDS011;5113;41.822;23.564;2023-03-14T20:58:53;9.67;;;6.37;;
10144;SDS011;5113;41.822;23.564;2023-03-14T21:01:59;5.00;;;4.33;;
10144;SDS011;5113;41.822;23.564;2023-03-14T21:05:06;16.47;;;4.63;;
10144;SDS011;5113;41.822;23.564;2023-03-14T21:08:14;8.50;;;6.93;;
10144;SDS011;5113;41.822;23.564;2023-03-14T21:11:23;9.83;;;5.23;;
10144;SDS011;5113;41.822;23.564;2023-03-14T21:14:30;8.27;;;6.40;;
10144;SDS011;5113;41.822;23.564;2023-03-14T21:17:37;14.73;;;8.80;;
10144;SDS011;5113;41.822;23.564;2023-03-14T21:20:43;12.93;;;7.27;;
10144;SDS011;5113;41.822;23.564;2023-03-14T21:23:50;14.83;;;8.97;;
10144;SDS011;5113;41.822;23.564;2023-03-14T21:26:59;16.87;;;8.90;;
10144;SDS011;5113;41.822;23.564;2023-03-14T21:30:05;30.73;;;13.37;;
10144;SDS011;5113;41.822;23.564;2023-03-14T21:33:14;21.70;;;12.27;;
10144;SDS011;5113;41.822;23.564;2023-03-14T21:36:21;18.63;;;11.53;;
10144;SDS011;5113;41.822;23.564;2023-03-14T21:39:27;19.70;;;9.97;;
10144;SDS011;5113;41.822;23.564;2023-03-14T21:42:35;18.23;;;9.63;;
10144;SDS011;5113;41.822;23.564;2023-03-14T21:45:42;20.97;;;11.90;;
10144;SDS011;5113;41.822;23.564;2023-03-14T21:48:49;23.60;;;11.27;;
10144;SDS011;5113;41.822;23.564;2023-03-14T21:51:57;22.57;;;11.30;;
10144;SDS011;5113;41.822;23.564;2023-03-14T21:55:04;24.13;;;12.60;;
10144;SDS011;5113;41.822;23.564;2023-03-14T21:58:12;24.43;;;11.97;;
10144;SDS011;5113;41.822;23.564;2023-03-14T22:01:19;17.23;;;11.03;;
10144;SDS011;5113;41.822;23.564;2023-03-14T22:04:27;26.67;;;13.33;;
10144;SDS011;5113;41.822;23.564;2023-03-14T22:07:38;27.60;;;14.47;;
10144;SDS011;5113;41.822;23.564;2023-03-14T22:10:46;20.93;;;11.03;;
10144;SDS011;5113;41.822;23.564;2023-03-14T22:13:55;15.90;;;10.00;;
10144;SDS011;5113;41.822;23.564;2023-03-14T22:17:01;7.20;;;6.07;;
10144;SDS011;5113;41.822;23.564;2023-03-14T22:20:08;6.90;;;4.17;;
10144;SDS011;5113;41.822;23.564;2023-03-14T22:23:17;4.47;;;4.00;;
10144;SDS011;5113;41.822;23.564;2023-03-14T22:26:23;10.60;;;6.67;;
10144;SDS011;5113;41.822;23.564;2023-03-14T22:29:31;10.73;;;7.13;;
10144;SDS011;5113;41.822;23.564;2023-03-14T22:32:40;7.83;;;6.67;;
10144;SDS011;5113;41.822;23.564;2023-03-14T22:35:47;5.73;;;4.60;;
10144;SDS011;5113;41.822;23.564;2023-03-14T22:38:54;5.37;;;3.20;;
10144;SDS011;5113;41.822;23.564;2023-03-14T22:42:02;6.03;;;3.70;;
10144;SDS011;5113;41.822;23.564;2023-03-14T22:45:09;7.47;;;4.70;;
10144;SDS011;5113;41.822;23.564;2023-03-14T22:48:16;4.90;;;3.70;;
10144;SDS011;5113;41.822;23.564;2023-03-14T22:51:23;4.37;;;3.80;;
10144;SDS011;5113;41.822;23.564;2023-03-14T22:54:29;6.00;;;3.80;;
10144;SDS011;5113;41.822;23.564;2023-03-14T22:57:35;3.70;;;3.40;;
10144;SDS011;5113;41.822;23.564;2023-03-14T23:00:43;5.23;;;4.23;;
10144;SDS011;5113;41.822;23.564;2023-03-14T23:03:50;4.73;;;3.53;;
10144;SDS011;5113;41.822;23.564;2023-03-14T23:06:57;6.30;;;4.73;;
10144;SDS011;5113;41.822;23.564;2023-03-14T23:10:03;3.87;;;3.50;;
10144;SDS011;5113;41.822;23.564;2023-03-14T23:13:11;6.40;;;3.67;;
10144;SDS011;5113;41.822;23.564;2023-03-14T23:16:19;5.83;;;3.80;;
10144;SDS011;5113;41.822;23.564;2023-03-14T23:19:37;3.93;;;3.13;;
10144;SDS011;5113;41.822;23.564;2023-03-14T23:22:43;4.93;;;4.13;;
10144;SDS011;5113;41.822;23.564;2023-03-14T23:25:50;11.37;;;4.47;;
10144;SDS011;5113;41.822;23.564;2023-03-14T23:28:57;6.93;;;3.33;;
10144;SDS011;5113;41.822;23.564;2023-03-14T23:32:05;3.07;;;2.60;;
10144;SDS011;5113;41.822;23.564;2023-03-14T23:35:12;3.13;;;2.13;;
10144;SDS011;5113;41.822;23.564;2023-03-14T23:38:19;3.03;;;2.83;;
10144;SDS011;5113;41.822;23.564;2023-03-14T23:41:25;4.80;;;2.77;;
10144;SDS011;5113;41.822;23.564;2023-03-14T23:44:31;4.83;;;3.40;;
10144;SDS011;5113;41.822;23.564;2023-03-14T23:47:39;5.53;;;3.83;;
10144;SDS011;5113;41.822;23.564;2023-03-14T23:50:45;4.17;;;3.77;;
10144;SDS011;5113;41.822;23.564;2023-03-14T23:53:52;6.80;;;5.27;;
10144;SDS011;5113;41.822;23.564;2023-03-14T23:56:58;25.53;;;13.83;;
